createdAt,value
2022-08-05T00:01:36.159Z,11.30
2022-08-05T00:04:17.276Z,12.30
2022-08-05T00:06:47.043Z,9.30
2022-08-05T00:09:14.889Z,14.70
2022-08-05T00:11:49.058Z,12.30
2022-08-05T00:14:29.055Z,10.00
2022-08-05T00:16:57.576Z,11.00
2022-08-05T00:19:33.646Z,9.50
2022-08-05T00:22:08.168Z,8.60
2022-08-05T00:24:42.577Z,12.90
2022-08-05T00:27:14.208Z,10.70
2022-08-05T00:29:44.524Z,11.30
2022-08-05T00:32:15.261Z,12.20
2022-08-05T00:35:04.312Z,12.10
2022-08-05T00:37:50.465Z,11.50
2022-08-05T00:40:27.733Z,12.10
2022-08-05T00:42:58.782Z,11.10
2022-08-05T00:45:38.886Z,9.80
2022-08-05T00:48:27.435Z,13.10
2022-08-05T00:50:54.976Z,10.90
2022-08-05T00:54:01.187Z,11.10
2022-08-05T00:56:11.470Z,9.30
2022-08-05T00:58:39.486Z,9.40
2022-08-05T01:01:11.415Z,9.50
2022-08-05T01:03:40.566Z,9.80
2022-08-05T01:06:14.235Z,12.00
2022-08-05T01:08:44.554Z,12.20
2022-08-05T01:11:36.885Z,11.20
2022-08-05T01:14:49.980Z,13.00
2022-08-05T01:17:26.496Z,10.90
2022-08-05T01:20:25.697Z,8.10
2022-08-05T01:23:34.851Z,13.20
2022-08-05T01:26:32.825Z,11.00
2022-08-05T01:29:05.559Z,7.70
2022-08-05T01:31:58.660Z,11.70
2022-08-05T01:34:32.495Z,14.20
2022-08-05T01:37:36.788Z,11.30
2022-08-05T01:40:14.107Z,11.40
2022-08-05T01:42:48.845Z,9.70
2022-08-05T01:45:17.870Z,10.80
2022-08-05T01:47:49.560Z,8.70
2022-08-05T01:50:28.704Z,11.30
2022-08-05T01:53:02.773Z,14.80
2022-08-05T01:55:36.135Z,8.20
2022-08-05T01:58:15.760Z,9.20
2022-08-05T02:00:49.888Z,11.50
2022-08-05T02:03:37.200Z,17.90
2022-08-05T02:06:33.387Z,12.00
2022-08-05T02:08:58.883Z,8.80
2022-08-05T02:11:36.320Z,14.20
2022-08-05T02:14:17.536Z,11.60
2022-08-05T02:16:56.243Z,9.10
2022-08-05T02:19:47.576Z,9.70
2022-08-05T02:22:28.489Z,9.30
2022-08-05T02:25:06.017Z,9.30
2022-08-05T02:27:59.065Z,9.60
2022-08-05T02:31:00.202Z,7.90
2022-08-05T02:33:36.089Z,11.10
2022-08-05T02:36:13.677Z,10.90
2022-08-05T02:38:52.869Z,13.50
2022-08-05T02:41:23.752Z,8.40
2022-08-05T02:44:06.460Z,10.40
2022-08-05T02:46:58.453Z,12.00
2022-08-05T02:49:37.767Z,14.80
2022-08-05T02:52:30.187Z,12.20
2022-08-05T02:55:05.384Z,11.20
2022-08-05T02:58:11.487Z,16.30
2022-08-05T03:00:28.722Z,14.90
2022-08-05T03:02:58.424Z,12.70
2022-08-05T03:06:53.762Z,10.10
2022-08-05T03:08:16.609Z,11.90
2022-08-05T03:11:55.638Z,11.40
2022-08-05T03:13:52.082Z,15.50
2022-08-05T03:16:21.596Z,11.60
2022-08-05T03:18:49.183Z,11.00
2022-08-05T03:21:16.444Z,10.10
2022-08-05T03:23:45.723Z,9.80
2022-08-05T03:26:30.828Z,8.10
2022-08-05T03:29:01.000Z,14.10
2022-08-05T03:31:55.874Z,12.70
2022-08-05T03:34:17.495Z,13.90
2022-08-05T03:36:45.433Z,12.50
2022-08-05T03:39:20.153Z,12.20
2022-08-05T03:41:57.781Z,16.20
2022-08-05T03:44:29.031Z,11.80
2022-08-05T03:46:57.778Z,11.40
2022-08-05T03:49:30.899Z,10.60
2022-08-05T03:52:37.822Z,9.70
2022-08-05T03:56:03.758Z,13.20
2022-08-05T03:58:29.030Z,20.40
2022-08-05T04:01:01.953Z,12.00
2022-08-05T04:03:35.559Z,13.90
2022-08-05T04:06:08.722Z,17.80
2022-08-05T04:08:37.193Z,22.50
2022-08-05T04:11:08.618Z,14.70
2022-08-05T04:13:50.137Z,13.70
2022-08-05T04:16:24.211Z,10.40
2022-08-05T04:22:09.782Z,16.50
2022-08-05T04:24:19.284Z,15.50
2022-08-05T04:26:50.404Z,15.10
2022-08-05T04:29:18.404Z,12.20
2022-08-05T04:31:47.054Z,19.60
2022-08-05T04:34:31.401Z,10.70
2022-08-05T04:37:03.167Z,14.00
2022-08-05T04:39:32.192Z,15.10
2022-08-05T04:42:00.086Z,14.70
2022-08-05T04:44:30.497Z,16.40
2022-08-05T04:47:08.982Z,15.80
2022-08-05T04:50:01.343Z,13.60
2022-08-05T04:52:28.050Z,11.70
2022-08-05T04:54:57.371Z,15.20
2022-08-05T04:57:28.954Z,17.20
2022-08-05T04:59:57.370Z,22.10
2022-08-05T05:02:41.404Z,16.90
2022-08-05T05:05:16.805Z,12.60
2022-08-05T05:08:01.987Z,16.90
2022-08-05T05:10:42.761Z,16.60
2022-08-05T05:13:23.452Z,25.60
2022-08-05T05:15:57.365Z,14.00
2022-08-05T05:18:33.261Z,11.50
2022-08-05T05:21:03.287Z,18.80
2022-08-05T05:24:01.779Z,11.20
2022-08-05T05:26:28.637Z,14.10
2022-08-05T05:29:14.375Z,16.40
2022-08-05T05:31:42.979Z,23.20
2022-08-05T05:34:14.015Z,17.90
2022-08-05T05:36:43.042Z,22.00
2022-08-05T05:39:13.044Z,9.30
2022-08-05T05:41:42.041Z,12.40
2022-08-05T05:44:35.818Z,8.70
2022-08-05T05:46:58.223Z,8.70
2022-08-05T05:49:26.447Z,9.80
2022-08-05T05:51:55.161Z,8.30
2022-08-05T05:54:35.460Z,13.90
2022-08-05T05:57:13.838Z,14.30
2022-08-05T05:59:47.869Z,11.70
2022-08-05T06:02:16.933Z,8.70
2022-08-05T06:04:44.468Z,12.90
2022-08-05T06:07:16.886Z,9.30
2022-08-05T06:10:04.484Z,7.80
2022-08-05T06:12:42.110Z,8.00
2022-08-05T06:15:16.503Z,9.70
2022-08-05T06:17:52.752Z,12.40
2022-08-05T06:20:21.647Z,9.80
2022-08-05T06:22:49.197Z,8.70
2022-08-05T06:25:58.994Z,10.70
2022-08-05T06:28:11.106Z,9.70
2022-08-05T06:30:48.042Z,9.20
2022-08-05T06:33:33.437Z,8.80
2022-08-05T06:36:13.117Z,8.50
2022-08-05T06:39:27.360Z,9.60
2022-08-05T06:42:04.603Z,10.80
2022-08-05T06:44:32.660Z,7.60
2022-08-05T06:47:02.186Z,13.10
2022-08-05T06:50:00.118Z,11.80
2022-08-05T06:52:37.894Z,8.00
2022-08-05T06:55:06.679Z,8.60
2022-08-05T06:58:03.730Z,9.30
2022-08-05T07:00:22.271Z,7.20
2022-08-05T07:02:53.651Z,8.10
2022-08-05T07:05:36.965Z,11.70
2022-08-05T07:08:06.197Z,9.70
2022-08-05T07:10:39.458Z,9.40
2022-08-05T07:13:57.688Z,8.30
2022-08-05T07:18:01.615Z,10.10
2022-08-05T07:20:23.058Z,6.80
2022-08-05T07:28:00.125Z,11.30
2022-08-05T07:30:32.628Z,11.40
2022-08-05T07:36:20.174Z,10.80
2022-08-05T07:38:54.802Z,7.90
2022-08-05T07:42:13.824Z,12.10
2022-08-05T07:44:18.766Z,9.70
2022-08-05T07:46:49.722Z,8.40
2022-08-05T07:49:18.423Z,7.90
2022-08-05T07:51:53.023Z,7.70
2022-08-05T07:54:30.670Z,8.30
2022-08-05T07:57:13.727Z,10.10
2022-08-05T07:59:48.883Z,8.50
2022-08-05T08:02:17.846Z,9.00
2022-08-05T08:04:46.904Z,10.40
2022-08-05T08:07:15.003Z,9.80
2022-08-05T08:09:43.195Z,9.70
2022-08-05T08:12:37.115Z,8.50
2022-08-05T08:15:09.759Z,8.50
2022-08-05T08:17:46.306Z,7.20
2022-08-05T08:21:03.200Z,9.50
2022-08-05T08:24:02.054Z,10.70
2022-08-05T08:26:30.190Z,9.70
2022-08-05T08:30:03.997Z,8.40
2022-08-05T08:32:18.582Z,8.20
2022-08-05T08:35:04.557Z,11.00
2022-08-05T08:37:46.114Z,7.50
2022-08-05T08:40:22.046Z,7.20
2022-08-05T08:42:55.092Z,8.90
2022-08-05T08:45:29.715Z,8.10
2022-08-05T08:48:10.526Z,6.70
2022-08-05T08:51:03.793Z,6.90
2022-08-05T08:53:40.347Z,7.80
2022-08-05T08:56:12.885Z,9.20
2022-08-05T08:58:47.447Z,6.50
2022-08-05T09:01:18.749Z,6.20
2022-08-05T09:03:54.557Z,6.60
2022-08-05T09:06:30.686Z,7.20
2022-08-05T09:09:00.505Z,7.30
2022-08-05T09:11:51.155Z,6.70
2022-08-05T09:14:58.977Z,7.10
2022-08-05T09:17:41.200Z,7.40
2022-08-05T09:20:12.185Z,6.40
2022-08-05T09:23:18.766Z,5.00
2022-08-05T09:26:02.044Z,6.50
2022-08-05T09:32:41.545Z,7.50
2022-08-05T09:34:48.944Z,7.40
2022-08-05T09:38:12.631Z,6.10
2022-08-05T09:40:53.598Z,6.30
2022-08-05T09:43:49.367Z,6.90
2022-08-05T09:46:32.271Z,5.90
2022-08-05T09:49:24.241Z,6.80
2022-08-05T09:52:19.527Z,8.90
2022-08-05T09:55:55.239Z,6.00
2022-08-05T09:57:54.554Z,5.70
2022-08-05T10:00:26.064Z,6.40
2022-08-05T10:02:58.139Z,5.70
2022-08-05T10:05:29.035Z,5.60
2022-08-05T10:08:34.893Z,6.00
2022-08-05T10:10:54.584Z,4.90
2022-08-05T10:13:49.167Z,5.60
2022-08-05T10:16:33.878Z,7.00
2022-08-05T10:19:13.246Z,5.50
2022-08-05T10:21:41.195Z,4.80
2022-08-05T10:24:12.582Z,7.70
2022-08-05T10:26:49.153Z,7.20
2022-08-05T10:30:07.024Z,7.20
2022-08-05T10:32:55.421Z,5.20
2022-08-05T10:35:04.710Z,6.60
2022-08-05T10:37:40.474Z,10.10
2022-08-05T10:40:28.502Z,5.70
2022-08-05T10:43:31.094Z,6.70
2022-08-05T10:46:08.343Z,5.30
2022-08-05T10:48:56.917Z,5.20
2022-08-05T10:51:48.509Z,6.30
2022-08-05T10:57:29.519Z,5.20
2022-08-05T11:00:20.028Z,5.30
2022-08-05T11:03:25.402Z,5.60
2022-08-05T11:06:15.197Z,5.00
2022-08-05T11:10:03.613Z,6.60
2022-08-05T11:12:45.316Z,6.60
2022-08-05T11:16:00.779Z,5.40
2022-08-05T11:18:46.971Z,5.70
2022-08-05T11:21:51.126Z,6.20
2022-08-05T11:24:29.825Z,5.10
2022-08-05T11:27:45.712Z,5.80
2022-08-05T11:30:18.277Z,5.70
2022-08-05T11:32:47.917Z,12.80
2022-08-05T11:36:08.031Z,5.00
2022-08-05T11:38:45.482Z,5.20
2022-08-05T11:41:56.287Z,5.60
2022-08-05T11:44:40.906Z,4.80
2022-08-05T11:47:11.839Z,4.70
2022-08-05T11:49:50.893Z,5.60
2022-08-05T11:52:29.229Z,6.40
2022-08-05T11:54:59.100Z,6.20
2022-08-05T11:58:08.096Z,4.30
2022-08-05T12:00:31.203Z,5.40
2022-08-05T12:03:15.386Z,5.40
2022-08-05T12:05:43.539Z,5.00
2022-08-05T12:08:11.822Z,6.30
2022-08-05T12:10:49.226Z,7.40
2022-08-05T12:13:47.748Z,4.80
2022-08-05T12:16:18.889Z,4.50
2022-08-05T12:18:49.593Z,4.70
2022-08-05T12:21:23.781Z,4.60
2022-08-05T12:24:10.806Z,4.70
2022-08-05T12:26:49.646Z,4.90
2022-08-05T12:29:23.752Z,5.00
2022-08-05T12:31:54.479Z,5.10
2022-08-05T12:34:31.508Z,5.90
2022-08-05T12:37:10.124Z,4.20
2022-08-05T12:39:40.293Z,5.10
2022-08-05T12:42:15.963Z,5.10
2022-08-05T12:44:45.462Z,5.60
2022-08-05T12:47:17.215Z,4.60
2022-08-05T12:50:03.629Z,5.70
2022-08-05T12:52:42.181Z,4.60
2022-08-05T12:55:26.308Z,4.10
2022-08-05T12:58:52.742Z,4.30
2022-08-05T13:02:01.592Z,4.40
2022-08-05T13:03:39.057Z,4.20
2022-08-05T13:06:16.874Z,3.30
2022-08-05T13:08:51.488Z,4.30
2022-08-05T13:12:01.102Z,4.50
2022-08-05T13:14:20.408Z,4.00
2022-08-05T13:16:56.454Z,6.10
2022-08-05T13:19:40.348Z,3.00
2022-08-05T13:22:15.202Z,3.50
2022-08-05T13:27:42.295Z,8.30
2022-08-05T13:30:35.459Z,4.20
2022-08-05T13:33:02.068Z,3.90
2022-08-05T13:35:42.391Z,3.80
2022-08-05T13:38:20.407Z,4.00
2022-08-05T13:40:59.328Z,3.90
2022-08-05T13:43:45.581Z,6.00
2022-08-05T13:46:16.279Z,4.40
2022-08-05T13:48:58.389Z,4.10
2022-08-05T13:51:40.352Z,3.90
2022-08-05T13:54:12.570Z,4.20
2022-08-05T13:56:45.443Z,4.10
2022-08-05T13:59:30.895Z,5.10
2022-08-05T14:02:00.631Z,8.10
2022-08-05T14:04:52.358Z,4.00
2022-08-05T14:07:26.083Z,4.10
2022-08-05T14:10:28.084Z,4.10
2022-08-05T14:12:57.197Z,4.40
2022-08-05T14:16:08.394Z,4.40
2022-08-05T14:18:17.668Z,4.10
2022-08-05T14:20:47.910Z,4.50
2022-08-05T14:23:24.883Z,4.30
2022-08-05T14:26:00.793Z,5.50
2022-08-05T14:28:29.055Z,5.10
2022-08-05T14:31:00.755Z,4.90
2022-08-05T14:33:56.525Z,5.00
2022-08-05T14:36:21.470Z,4.50
2022-08-05T14:38:50.922Z,4.50
2022-08-05T14:41:18.823Z,6.40
2022-08-05T14:44:02.318Z,5.40
2022-08-05T14:46:35.063Z,5.00
2022-08-05T14:49:07.452Z,4.90
2022-08-05T14:51:38.464Z,4.60
2022-08-05T14:54:26.656Z,9.10
2022-08-05T14:56:58.029Z,5.10
2022-08-05T14:59:29.571Z,4.10
2022-08-05T15:01:58.011Z,4.30
2022-08-05T15:04:27.375Z,4.40
2022-08-05T15:06:57.512Z,4.70
2022-08-05T15:09:51.305Z,4.00
2022-08-05T15:12:16.562Z,5.50
2022-08-05T15:14:49.901Z,5.10
2022-08-05T15:17:46.096Z,5.50
2022-08-05T15:20:18.483Z,4.80
2022-08-05T15:22:54.322Z,4.50
2022-08-05T15:25:51.501Z,5.50
2022-08-05T15:28:15.710Z,9.20
2022-08-05T15:30:45.527Z,5.50
2022-08-05T15:34:18.932Z,4.90
2022-08-05T15:36:06.322Z,5.70
2022-08-05T15:38:46.482Z,4.80
2022-08-05T15:41:21.833Z,6.90
2022-08-05T15:43:54.528Z,4.60
2022-08-05T15:46:24.461Z,5.90
2022-08-05T15:49:00.657Z,8.20
2022-08-05T15:52:13.108Z,5.00
2022-08-05T15:54:34.826Z,5.20
2022-08-05T15:57:07.674Z,4.50
2022-08-05T15:59:36.149Z,5.70
2022-08-05T16:02:09.585Z,4.50
2022-08-05T16:04:43.969Z,4.80
2022-08-05T16:07:11.523Z,5.40
2022-08-05T16:09:41.505Z,5.80
2022-08-05T16:12:09.604Z,5.00
2022-08-05T16:14:39.071Z,5.20
2022-08-05T16:17:06.531Z,4.30
2022-08-05T16:20:04.391Z,5.20
2022-08-05T16:22:24.526Z,4.20
2022-08-05T16:24:55.430Z,6.90
2022-08-05T16:27:32.015Z,3.90
2022-08-05T16:30:25.927Z,4.80
2022-08-05T16:32:54.382Z,4.10
2022-08-05T16:35:28.158Z,3.50
2022-08-05T16:38:03.007Z,4.80
2022-08-05T16:40:51.731Z,3.60
2022-08-05T16:43:25.162Z,4.30
2022-08-05T16:46:03.613Z,3.50
2022-08-05T16:48:38.312Z,3.60
2022-08-05T16:51:09.120Z,4.10
2022-08-05T16:54:04.249Z,10.10
2022-08-05T16:56:30.302Z,5.10
2022-08-05T16:58:58.178Z,4.50
2022-08-05T17:01:26.207Z,4.30
2022-08-05T17:03:53.535Z,6.30
2022-08-05T17:06:20.942Z,4.20
2022-08-05T17:08:54.388Z,3.90
2022-08-05T17:11:25.927Z,4.00
2022-08-05T17:14:00.655Z,6.70
2022-08-05T17:16:36.787Z,4.30
2022-08-05T17:19:07.109Z,7.50
2022-08-05T17:21:36.914Z,8.00
2022-08-05T17:24:28.435Z,5.30
2022-08-05T17:26:58.203Z,9.00
2022-08-05T17:29:34.022Z,8.10
2022-08-05T17:32:11.538Z,4.90
2022-08-05T17:34:49.115Z,5.90
2022-08-05T17:37:39.824Z,5.40
2022-08-05T17:40:14.396Z,6.90
2022-08-05T17:42:50.666Z,6.60
2022-08-05T17:45:22.065Z,7.20
2022-08-05T17:47:54.887Z,5.00
2022-08-05T17:50:28.826Z,8.40
2022-08-05T17:53:00.476Z,7.20
2022-08-05T17:55:37.276Z,9.70
2022-08-05T17:58:12.457Z,6.90
2022-08-05T18:00:47.588Z,8.20
2022-08-05T18:03:59.369Z,6.60
2022-08-05T18:06:12.254Z,7.80
2022-08-05T18:08:46.070Z,5.20
2022-08-05T18:11:24.712Z,5.90
2022-08-05T18:14:13.153Z,5.50
2022-08-05T18:16:51.330Z,6.70
2022-08-05T18:19:22.831Z,6.70
2022-08-05T18:22:09.222Z,8.40
2022-08-05T18:24:40.026Z,7.60
2022-08-05T18:27:16.596Z,9.40
2022-08-05T18:29:51.983Z,6.00
2022-08-05T18:32:27.703Z,7.20
2022-08-05T18:34:57.191Z,7.20
2022-08-05T18:37:34.278Z,10.90
2022-08-05T18:40:57.643Z,7.40
2022-08-05T18:42:58.396Z,6.40
2022-08-05T18:45:26.569Z,8.60
2022-08-05T18:48:11.408Z,8.00
2022-08-05T18:52:05.107Z,8.60
2022-08-05T18:54:03.505Z,10.40
2022-08-05T18:56:30.894Z,8.40
2022-08-05T18:59:01.435Z,10.00
2022-08-05T19:01:33.377Z,9.80
2022-08-05T19:04:24.083Z,10.00
2022-08-05T19:06:53.542Z,8.50
2022-08-05T19:09:21.360Z,11.70
2022-08-05T19:12:00.740Z,10.00
2022-08-05T19:14:37.892Z,10.40
2022-08-05T19:17:18.037Z,11.70
2022-08-05T19:19:48.717Z,14.70
2022-08-05T19:22:17.548Z,25.20
2022-08-05T19:24:54.366Z,20.70
2022-08-05T19:27:30.161Z,18.60
2022-08-05T19:29:58.341Z,14.30
2022-08-05T19:32:26.256Z,19.10
2022-08-05T19:34:56.541Z,15.50
2022-08-05T19:37:35.331Z,13.00
2022-08-05T19:40:15.074Z,12.70
2022-08-05T19:42:42.701Z,13.90
2022-08-05T19:45:33.197Z,18.20
2022-08-05T19:48:05.665Z,16.20
2022-08-05T19:50:34.507Z,12.90
2022-08-05T19:53:10.432Z,15.60
2022-08-05T19:56:13.898Z,13.40
2022-08-05T19:58:29.088Z,16.70
2022-08-05T20:00:58.297Z,12.90
2022-08-05T20:03:26.924Z,15.30
2022-08-05T20:06:15.546Z,13.90
2022-08-05T20:08:47.257Z,12.20
2022-08-05T20:11:18.061Z,15.90
2022-08-05T20:13:54.707Z,15.50
2022-08-05T20:16:26.858Z,14.80
2022-08-05T20:18:55.578Z,17.60
2022-08-05T20:21:24.912Z,16.60
2022-08-05T20:23:53.489Z,13.20
2022-08-05T20:26:24.595Z,14.10
2022-08-05T20:28:57.003Z,20.50
2022-08-05T20:31:28.423Z,16.20
2022-08-05T20:34:11.237Z,17.10
2022-08-05T20:36:43.527Z,15.60
2022-08-05T20:39:13.564Z,19.50
2022-08-05T20:41:46.418Z,15.30
2022-08-05T20:44:29.789Z,20.40
2022-08-05T20:47:01.084Z,13.50
2022-08-05T20:49:28.911Z,19.20
2022-08-05T20:51:57.310Z,15.10
2022-08-05T20:54:59.532Z,13.40
2022-08-05T20:57:42.050Z,18.50
2022-08-05T21:00:19.846Z,17.40
2022-08-05T21:02:57.681Z,13.60
2022-08-05T21:05:25.763Z,19.20
2022-08-05T21:08:06.012Z,17.40
2022-08-05T21:10:33.643Z,21.50
2022-08-05T21:13:10.334Z,15.10
2022-08-05T21:15:44.520Z,13.30
2022-08-05T21:18:18.354Z,14.20
2022-08-05T21:20:45.681Z,14.00
2022-08-05T21:23:14.215Z,15.00
2022-08-05T21:25:44.629Z,13.80
2022-08-05T21:28:11.853Z,13.70
2022-08-05T21:30:39.553Z,15.10
2022-08-05T21:33:11.692Z,17.80
2022-08-05T21:35:58.877Z,22.00
2022-08-05T21:38:27.511Z,17.90
2022-08-05T21:40:54.816Z,15.70
2022-08-05T21:43:24.415Z,15.50
2022-08-05T21:45:57.720Z,19.30
2022-08-05T21:48:28.701Z,18.10
2022-08-05T21:50:56.268Z,22.00
2022-08-05T21:53:27.313Z,14.80
2022-08-05T21:56:09.640Z,12.10
2022-08-05T21:58:57.078Z,11.90
2022-08-05T22:03:55.386Z,16.50
2022-08-05T22:06:35.078Z,12.60
2022-08-05T22:09:14.557Z,14.30
2022-08-05T22:11:46.920Z,16.00
2022-08-05T22:14:35.532Z,11.60
2022-08-05T22:17:06.618Z,13.00
2022-08-05T22:19:57.513Z,14.10
2022-08-05T22:22:28.098Z,12.50
2022-08-05T22:25:18.262Z,13.10
2022-08-05T22:28:09.029Z,19.10
2022-08-05T22:30:56.716Z,15.60
2022-08-05T22:33:57.519Z,18.00
2022-08-05T22:36:15.334Z,18.90
2022-08-05T22:38:48.054Z,17.80
2022-08-05T22:41:26.235Z,17.80
2022-08-05T22:44:08.977Z,15.10
2022-08-05T22:46:39.996Z,16.80
2022-08-05T22:49:23.008Z,15.50
2022-08-05T22:52:05.620Z,23.40
2022-08-05T22:54:36.914Z,16.20
2022-08-05T22:57:06.418Z,13.10
2022-08-05T22:59:43.966Z,15.30
2022-08-05T23:02:18.107Z,12.90
2022-08-05T23:04:52.080Z,16.60
2022-08-05T23:07:21.865Z,15.00
2022-08-05T23:09:57.531Z,17.30
2022-08-05T23:12:32.451Z,16.90
2022-08-05T23:15:08.828Z,15.40
2022-08-05T23:17:37.887Z,15.60
2022-08-05T23:20:24.386Z,15.00
2022-08-05T23:22:56.002Z,14.70
2022-08-05T23:25:53.688Z,15.40
2022-08-05T23:28:12.128Z,14.10
2022-08-05T23:30:43.739Z,17.30
2022-08-05T23:33:22.068Z,14.90
2022-08-05T23:35:56.028Z,15.90
2022-08-05T23:38:25.478Z,15.70
2022-08-05T23:40:53.101Z,15.40
2022-08-05T23:43:25.321Z,14.10
2022-08-05T23:46:20.943Z,14.30
2022-08-05T23:49:00.257Z,16.10
2022-08-05T23:51:55.219Z,21.10
2022-08-05T23:54:30.387Z,21.40
2022-08-05T23:57:03.890Z,17.40
2022-08-05T23:59:37.740Z,15.00
